Time;durP1;ratioP1;P1;durP2;ratioP2;P2;SDS_P1;SDS_P2;PMS_P1;PMS_P2;Temp;Humidity;BMP_temperature;BMP_pressure;BME280_temperature;BME280_humidity;BME280_pressure;Samples;Min_cycle;Max_cycle;Signal;HPM_P1;HPM_P2
2023/10/08 00:03:58;;;;;;;;;;;16.20;99.90;;;;;;6738327;88;20065;-80
2023/10/08 00:14:01;;;;;;;;;;;16.10;99.90;;;;;;6731552;88;20168;-80
2023/10/08 00:24:02;;;;;;;;;;;16.00;99.90;;;;;;6735877;88;20082;-80
2023/10/08 00:34:05;;;;;;;;;;;16.20;99.90;;;;;;6742507;88;20073;-79
2023/10/08 00:44:13;;;;;;;;;;;16.30;99.90;;;;;;6724795;88;20125;-79
2023/10/08 00:54:17;;;;;;;;;;;16.00;99.90;;;;;;6741818;88;20083;-79
2023/10/08 01:04:23;;;;;;;;;;;15.70;99.90;;;;;;6744044;88;20057;-80
2023/10/08 01:14:31;;;;;;;;;;;15.60;99.90;;;;;;6742690;88;20054;-79
2023/10/08 01:24:34;;;;;;;;;;;15.50;99.90;;;;;;6730465;88;20098;-79
2023/10/08 01:34:36;;;;;;;;;;;15.70;99.90;;;;;;6734736;88;20059;-79
2023/10/08 01:44:37;;;;;;;;;;;15.60;99.90;;;;;;6740694;88;20464;-80
2023/10/08 01:54:37;;;;;;;;;;;15.20;99.90;;;;;;6742749;88;20089;-79
2023/10/08 02:04:38;;;;;;;;;;;15.00;99.90;;;;;;6739317;88;20054;-79
2023/10/08 02:14:40;;;;;;;;;;;14.90;99.90;;;;;;6744228;88;20104;-78
2023/10/08 02:24:41;;;;;;;;;;;14.70;99.90;;;;;;6742341;88;20061;-79
2023/10/08 02:34:42;;;;;;;;;;;14.50;99.90;;;;;;6742742;88;20079;-79
2023/10/08 02:44:42;;;;;;;;;;;14.50;99.90;;;;;;6742517;88;20066;-79
2023/10/08 02:54:43;;;;;;;;;;;14.50;99.90;;;;;;6742007;88;20183;-79
2023/10/08 03:04:45;;;;;;;;;;;14.30;99.90;;;;;;6742782;88;20070;-79
2023/10/08 03:15:00;;;;;;;;;;;14.30;99.90;;;;;;6726386;88;20061;-79
2023/10/08 03:25:15;;;;;;;;;;;14.40;99.90;;;;;;6733295;88;20120;-79
2023/10/08 03:56:00;;;;;;;;;;;14.20;99.90;;;;;;6736726;88;20049;-82
2023/10/08 04:06:14;;;;;;;;;;;14.20;99.90;;;;;;6758372;88;20651;-82
2023/10/08 04:16:18;;;;;;;;;;;14.10;99.90;;;;;;6743942;88;20046;-81
2023/10/08 04:26:23;;;;;;;;;;;14.10;99.90;;;;;;6745781;88;21172;-81
2023/10/08 04:36:24;;;;;;;;;;;14.00;99.90;;;;;;6743070;88;22168;-81
2023/10/08 04:56:39;;;;;;;;;;;14.10;99.90;;;;;;6742302;88;20201;-81
2023/10/08 05:06:50;;;;;;;;;;;14.00;99.90;;;;;;6743296;88;20148;-81
2023/10/08 05:27:37;;;;;;;;;;;14.10;99.90;;;;;;6739863;88;20042;-81
2023/10/08 05:37:42;;;;;;;;;;;14.10;99.90;;;;;;6745597;88;20057;-83
2023/10/08 05:48:06;;;;;;;;;;;14.00;99.90;;;;;;6761147;88;20080;-81
2023/10/08 05:58:13;;;;;;;;;;;13.70;99.90;;;;;;6757556;88;20050;-82
2023/10/08 06:08:21;;;;;;;;;;;13.80;99.90;;;;;;6740088;88;20082;-81
2023/10/08 06:18:25;;;;;;;;;;;13.90;99.90;;;;;;6734724;88;20045;-80
2023/10/08 06:28:26;;;;;;;;;;;14.00;99.90;;;;;;6736906;88;20094;-80
2023/10/08 06:38:29;;;;;;;;;;;14.10;99.90;;;;;;6735442;88;20124;-80
2023/10/08 06:48:30;;;;;;;;;;;14.20;99.90;;;;;;6736239;88;20073;-80
2023/10/08 06:58:34;;;;;;;;;;;14.20;99.90;;;;;;6743514;88;20050;-80
2023/10/08 07:08:35;;;;;;;;;;;14.20;99.90;;;;;;6737075;88;20072;-79
2023/10/08 07:18:35;;;;;;;;;;;14.50;99.90;;;;;;6730153;88;20081;-80
2023/10/08 07:28:39;;;;;;;;;;;14.80;99.90;;;;;;6728043;88;20062;-80
2023/10/08 07:38:42;;;;;;;;;;;15.20;99.90;;;;;;6727328;88;20090;-80
2023/10/08 07:48:43;;;;;;;;;;;15.70;99.90;;;;;;6727943;88;20071;-80
2023/10/08 07:58:43;;;;;;;;;;;15.70;99.90;;;;;;6734028;88;20160;-79
2023/10/08 08:08:44;;;;;;;;;;;15.80;99.90;;;;;;6738925;88;20066;-78
2023/10/08 08:18:45;;;;;;;;;;;16.90;99.90;;;;;;6732241;88;20214;-79
2023/10/08 08:28:46;;;;;;;;;;;17.40;99.90;;;;;;6734807;88;20118;-80
2023/10/08 08:38:47;;;;;;;;;;;18.10;99.90;;;;;;6745481;88;20166;-80
2023/10/08 08:48:48;;;;;;;;;;;18.70;99.90;;;;;;6741523;88;20050;-79
2023/10/08 08:58:49;;;;;;;;;;;19.20;99.90;;;;;;6734471;88;20595;-79
2023/10/08 09:08:49;;;;;;;;;;;19.60;99.90;;;;;;6728228;88;20102;-80
2023/10/08 09:18:51;;;;;;;;;;;20.20;99.90;;;;;;6735080;88;20181;-76
2023/10/08 09:28:53;;;;;;;;;;;20.70;99.90;;;;;;6718752;88;20111;-77
2023/10/08 09:48:59;;;;;;;;;;;22.60;99.90;;;;;;6729962;88;20515;-76
2023/10/08 09:59:00;;;;;;;;;;;23.80;99.90;;;;;;6723116;88;20138;-76
2023/10/08 10:09:01;;;;;;;;;;;23.80;99.90;;;;;;6736136;88;20047;-78
2023/10/08 10:19:01;;;;;;;;;;;24.10;99.90;;;;;;6726155;88;20518;-77
2023/10/08 10:29:14;;;;;;;;;;;25.10;99.90;;;;;;6724718;88;20517;-77
2023/10/08 10:39:16;;;;;;;;;;;24.80;99.90;;;;;;6722919;88;20137;-77
2023/10/08 10:49:30;;;;;;;;;;;25.10;99.90;;;;;;6723113;88;20628;-79
2023/10/08 10:59:36;;;;;;;;;;;24.80;99.90;;;;;;6735656;88;20079;-79
2023/10/08 11:09:44;;;;;;;;;;;24.80;99.90;;;;;;6739029;88;20196;-77
2023/10/08 11:19:48;;;;;;;;;;;25.30;99.90;;;;;;6717183;88;20126;-79
2023/10/08 11:29:59;;;;;;;;;;;26.00;99.90;;;;;;6736078;88;20499;-79
2023/10/08 11:40:08;;;;;;;;;;;26.90;99.90;;;;;;6734097;88;20533;-79
2023/10/08 11:50:19;;;;;;;;;;;27.10;99.90;;;;;;6732414;88;20212;-79
2023/10/08 12:00:20;;;;;;;;;;;26.80;99.90;;;;;;6742963;88;20074;-80
2023/10/08 12:10:22;;;;;;;;;;;27.30;99.90;;;;;;6730507;88;20073;-78
2023/10/08 12:20:22;;;;;;;;;;;27.60;99.90;;;;;;6729833;88;20075;-79
2023/10/08 12:30:30;;;;;;;;;;;27.30;99.90;;;;;;6737015;88;20130;-79
2023/10/08 12:40:42;;;;;;;;;;;27.20;99.90;;;;;;6732278;88;20070;-80
2023/10/08 12:50:42;;;;;;;;;;;25.90;99.90;;;;;;6728706;88;20090;-80
2023/10/08 13:00:43;;;;;;;;;;;25.00;99.90;;;;;;6737334;88;20125;-79
2023/10/08 13:10:43;;;;;;;;;;;24.50;99.90;;;;;;6736908;88;20078;-80
2023/10/08 13:20:44;;;;;;;;;;;23.90;99.90;;;;;;6735684;88;20055;-80
2023/10/08 13:30:45;;;;;;;;;;;23.20;99.90;;;;;;6735475;88;20148;-79
2023/10/08 13:41:02;;;;;;;;;;;23.40;99.90;;;;;;6735819;88;20062;-80
2023/10/08 13:51:03;;;;;;;;;;;23.30;99.90;;;;;;6733801;88;20068;-79
2023/10/08 14:01:13;;;;;;;;;;;22.70;99.90;;;;;;6739181;88;20281;-79
2023/10/08 14:11:14;;;;;;;;;;;22.80;99.90;;;;;;6737939;88;20027;-79
2023/10/08 14:21:15;;;;;;;;;;;22.70;99.90;;;;;;6724053;88;20067;-77
2023/10/08 14:31:15;;;;;;;;;;;22.80;99.90;;;;;;6725286;88;20050;-78
2023/10/08 14:51:35;;;;;;;;;;;22.60;99.90;;;;;;6712334;88;20623;-76
2023/10/08 15:01:35;;;;;;;;;;;22.50;99.90;;;;;;6711703;88;20132;-77
2023/10/08 15:11:36;;;;;;;;;;;22.10;99.90;;;;;;6715156;88;20125;-77
2023/10/08 15:21:36;;;;;;;;;;;21.90;99.90;;;;;;6733832;88;20067;-80
2023/10/08 15:31:37;;;;;;;;;;;21.70;99.90;;;;;;6736732;88;20050;-79
2023/10/08 15:41:37;;;;;;;;;;;21.70;99.90;;;;;;6742056;77;20053;-76
2023/10/08 15:51:38;;;;;;;;;;;21.80;99.90;;;;;;6728694;88;20054;-76
2023/10/08 16:01:38;;;;;;;;;;;21.60;99.90;;;;;;6730934;88;20858;-76
2023/10/08 16:11:39;;;;;;;;;;;21.20;99.90;;;;;;6727199;88;20467;-76
2023/10/08 16:21:39;;;;;;;;;;;20.80;99.90;;;;;;6729354;88;20127;-76
2023/10/08 16:31:43;;;;;;;;;;;20.50;99.90;;;;;;6719483;88;20073;-77
2023/10/08 16:41:44;;;;;;;;;;;20.20;99.90;;;;;;6723663;88;20075;-78
2023/10/08 16:51:44;;;;;;;;;;;20.00;99.90;;;;;;6725171;88;20502;-77
2023/10/08 17:01:45;;;;;;;;;;;19.70;99.90;;;;;;6727118;88;20164;-80
2023/10/08 17:11:46;;;;;;;;;;;19.50;99.90;;;;;;6729514;88;20075;-79
2023/10/08 17:21:50;;;;;;;;;;;19.20;99.90;;;;;;6731003;88;20062;-79
2023/10/08 17:31:50;;;;;;;;;;;18.90;99.90;;;;;;6730252;88;20073;-80
2023/10/08 17:41:51;;;;;;;;;;;18.60;99.90;;;;;;6736153;88;20193;-81
2023/10/08 17:51:52;;;;;;;;;;;18.30;99.90;;;;;;6731914;88;20332;-80
2023/10/08 18:01:53;;;;;;;;;;;18.00;99.90;;;;;;6733137;88;20081;-81
2023/10/08 18:11:56;;;;;;;;;;;17.90;99.90;;;;;;6730621;88;20066;-81
2023/10/08 18:21:58;;;;;;;;;;;17.60;99.90;;;;;;6726769;88;20157;-79
2023/10/08 18:32:00;;;;;;;;;;;17.50;99.90;;;;;;6737557;88;20123;-82
2023/10/08 18:42:00;;;;;;;;;;;17.30;99.90;;;;;;6740845;88;20612;-82
2023/10/08 18:52:01;;;;;;;;;;;17.10;99.90;;;;;;6736703;88;20050;-79
2023/10/08 19:02:01;;;;;;;;;;;16.90;99.90;;;;;;6738240;88;20502;-83
2023/10/08 19:12:06;;;;;;;;;;;16.80;99.90;;;;;;6740973;88;20071;-82
2023/10/08 19:22:07;;;;;;;;;;;16.70;99.90;;;;;;6745145;88;20078;-81
2023/10/08 19:32:10;;;;;;;;;;;16.70;99.90;;;;;;6746173;88;20039;-81
2023/10/08 19:42:11;;;;;;;;;;;16.60;99.90;;;;;;6750925;88;20088;-82
2023/10/08 19:52:12;;;;;;;;;;;16.40;99.90;;;;;;6749679;88;20544;-80
2023/10/08 20:02:12;;;;;;;;;;;16.40;99.90;;;;;;6740086;88;20059;-81
2023/10/08 20:12:13;;;;;;;;;;;16.30;99.90;;;;;;6742520;88;20055;-81
2023/10/08 20:22:13;;;;;;;;;;;16.10;99.90;;;;;;6731216;88;20068;-78
2023/10/08 20:32:14;;;;;;;;;;;15.80;99.90;;;;;;6736833;88;20061;-83
2023/10/08 20:42:15;;;;;;;;;;;15.70;99.90;;;;;;6735177;88;20088;-81
2023/10/08 20:52:18;;;;;;;;;;;15.60;99.90;;;;;;6734029;88;20081;-81
2023/10/08 21:02:18;;;;;;;;;;;15.50;99.90;;;;;;6735966;88;20129;-81
2023/10/08 21:12:21;;;;;;;;;;;15.60;99.90;;;;;;6736107;88;20643;-79
2023/10/08 21:22:22;;;;;;;;;;;15.60;99.90;;;;;;6729974;88;20072;-79
2023/10/08 21:32:22;;;;;;;;;;;15.50;99.90;;;;;;6729946;88;20071;-79
2023/10/08 21:42:23;;;;;;;;;;;15.50;99.90;;;;;;6729214;88;20107;-79
2023/10/08 21:52:23;;;;;;;;;;;15.20;99.90;;;;;;6732816;88;20155;-80
2023/10/08 22:02:24;;;;;;;;;;;15.10;99.90;;;;;;6732795;88;20050;-81
2023/10/08 22:12:28;;;;;;;;;;;15.20;99.90;;;;;;6735455;88;20055;-80
2023/10/08 22:22:29;;;;;;;;;;;15.20;99.90;;;;;;6731251;88;20059;-81
2023/10/08 22:32:29;;;;;;;;;;;15.10;99.90;;;;;;6735124;88;20105;-81
2023/10/08 22:42:32;;;;;;;;;;;15.00;99.90;;;;;;6734832;88;20275;-81
2023/10/08 22:52:32;;;;;;;;;;;14.80;99.90;;;;;;6734860;88;20064;-81
2023/10/08 23:02:33;;;;;;;;;;;14.80;99.90;;;;;;6728824;88;20042;-81
2023/10/08 23:12:33;;;;;;;;;;;14.80;99.90;;;;;;6733492;88;20139;-80
2023/10/08 23:22:34;;;;;;;;;;;15.10;99.90;;;;;;6740813;88;20060;-80
2023/10/08 23:32:35;;;;;;;;;;;15.20;99.90;;;;;;6737285;88;20068;-81
2023/10/08 23:42:44;;;;;;;;;;;15.20;99.90;;;;;;6741815;88;20135;-80
2023/10/08 23:52:48;;;;;;;;;;;15.20;99.90;;;;;;6747413;88;20063;-80
